Time;durP1;ratioP1;P1;durP2;ratioP2;P2;SDS_P1;SDS_P2;PMS_P1;PMS_P2;Temp;Humidity;BMP_temperature;BMP_pressure;BME280_temperature;BME280_humidity;BME280_pressure;Samples;Min_cycle;Max_cycle;Signal;HPM_P1;HPM_P2
2023/01/20 00:01:13;;;;;;;9.73;5.90;;;-3.70;93.90;;;;;;5017973;28;20022;-65
2023/01/20 00:03:46;;;;;;;15.52;7.35;;;-3.80;94.00;;;;;;5017041;28;20386;-65
2023/01/20 00:06:12;;;;;;;13.30;7.35;;;-3.80;93.70;;;;;;5009688;28;20419;-65
2023/01/20 00:08:38;;;;;;;10.57;6.32;;;-3.80;93.80;;;;;;5014773;28;20096;-65
2023/01/20 00:11:09;;;;;;;16.67;7.80;;;-3.80;93.50;;;;;;5017312;28;20057;-65
2023/01/20 00:13:36;;;;;;;21.45;9.60;;;-3.80;93.50;;;;;;5016394;28;20064;-65
2023/01/20 00:16:03;;;;;;;24.20;10.40;;;-3.80;93.70;;;;;;5017660;28;20431;-64
2023/01/20 00:18:29;;;;;;;22.13;9.93;;;-3.80;94.30;;;;;;5016929;28;20032;-64
2023/01/20 00:20:55;;;;;;;17.85;9.05;;;-3.80;94.60;;;;;;5016293;28;20022;-65
2023/01/20 00:23:26;;;;;;;22.23;9.27;;;-3.80;95.00;;;;;;5015133;28;20056;-64
2023/01/20 00:25:52;;;;;;;13.82;7.38;;;-3.90;95.50;;;;;;5017525;28;20037;-64
2023/01/20 00:28:17;;;;;;;15.50;7.38;;;-4.00;94.90;;;;;;5016475;28;20500;-64
2023/01/20 00:30:43;;;;;;;12.43;6.63;;;-4.00;94.70;;;;;;5020051;28;20474;-65
2023/01/20 00:33:08;;;;;;;13.23;7.00;;;-4.10;94.10;;;;;;5017969;28;20300;-65
2023/01/20 00:35:36;;;;;;;16.70;8.10;;;-4.20;94.70;;;;;;5027186;28;20045;-64
2023/01/20 00:38:01;;;;;;;14.55;8.00;;;-4.20;94.10;;;;;;4999229;28;20034;-64
2023/01/20 00:40:27;;;;;;;13.35;7.18;;;-4.30;93.80;;;;;;5016050;28;20064;-65
2023/01/20 00:42:52;;;;;;;11.35;7.32;;;-4.40;93.20;;;;;;5014258;28;20411;-64
2023/01/20 00:45:18;;;;;;;11.65;6.53;;;-4.40;92.40;;;;;;4996208;28;20404;-65
2023/01/20 00:47:43;;;;;;;13.27;7.18;;;-4.40;92.30;;;;;;5016333;28;20367;-64
2023/01/20 00:50:09;;;;;;;14.18;7.85;;;-4.40;92.90;;;;;;5024932;28;20423;-64
2023/01/20 00:52:35;;;;;;;16.58;8.48;;;-4.50;92.30;;;;;;5016975;28;20117;-64
2023/01/20 00:55:04;;;;;;;14.40;8.07;;;-4.40;92.20;;;;;;5015757;28;20054;-64
2023/01/20 00:57:29;;;;;;;18.95;9.90;;;-4.40;92.10;;;;;;5014785;28;20128;-64
2023/01/20 00:59:55;;;;;;;14.13;8.00;;;-4.40;91.90;;;;;;5015920;28;20088;-64
2023/01/20 01:02:20;;;;;;;15.73;8.80;;;-4.30;92.20;;;;;;5014501;28;20041;-63
2023/01/20 01:04:49;;;;;;;14.55;8.55;;;-4.30;92.30;;;;;;5018228;28;20041;-64
2023/01/20 01:07:15;;;;;;;20.10;11.43;;;-4.30;92.60;;;;;;5017932;28;20100;-64
2023/01/20 01:09:41;;;;;;;14.70;8.50;;;-4.30;92.30;;;;;;5012891;28;20430;-64
2023/01/20 01:12:06;;;;;;;18.73;9.77;;;-4.30;91.90;;;;;;5004376;28;20341;-64
2023/01/20 01:14:32;;;;;;;15.52;8.90;;;-4.30;92.10;;;;;;5012346;28;20314;-64
2023/01/20 01:16:57;;;;;;;14.15;9.27;;;-4.30;92.50;;;;;;5010384;28;20026;-64
2023/01/20 01:19:23;;;;;;;18.02;10.35;;;-4.20;92.50;;;;;;5015845;28;20033;-64
2023/01/20 01:21:49;;;;;;;20.13;11.73;;;-4.20;92.30;;;;;;5014211;28;20105;-64
2023/01/20 01:24:14;;;;;;;18.70;11.20;;;-4.20;92.80;;;;;;5014748;28;20038;-64
2023/01/20 01:26:40;;;;;;;14.45;8.90;;;-4.20;92.80;;;;;;5014186;28;20041;-64
2023/01/20 01:29:05;;;;;;;12.93;7.90;;;-4.10;93.20;;;;;;5015897;28;20033;-64
2023/01/20 01:31:31;;;;;;;12.05;7.70;;;-4.10;93.40;;;;;;5015336;28;20036;-64
2023/01/20 01:33:56;;;;;;;12.38;8.35;;;-4.10;93.70;;;;;;5017924;28;20033;-65
2023/01/20 01:36:22;;;;;;;13.45;7.72;;;-4.10;93.90;;;;;;5013659;28;20041;-64
2023/01/20 01:38:47;;;;;;;11.75;6.80;;;-4.00;93.40;;;;;;5017674;28;20025;-64
2023/01/20 01:41:14;;;;;;;13.85;7.97;;;-4.00;93.40;;;;;;5014759;28;20022;-65
2023/01/20 01:44:00;;;;;;;17.35;9.60;;;-3.90;93.70;;;;;;5014067;28;20062;-64
2023/01/20 01:46:26;;;;;;;11.43;7.53;;;-3.90;93.70;;;;;;5015386;28;20509;-65
2023/01/20 01:48:52;;;;;;;11.85;7.18;;;-3.90;93.20;;;;;;5012788;28;20026;-65
2023/01/20 01:51:26;;;;;;;11.88;7.53;;;-4.00;93.50;;;;;;5013253;28;20064;-65
2023/01/20 01:54:12;;;;;;;12.93;7.35;;;-3.90;93.70;;;;;;5013703;28;20034;-65
2023/01/20 01:56:42;;;;;;;12.40;7.28;;;-3.90;93.40;;;;;;5007265;28;20490;-65
2023/01/20 01:59:08;;;;;;;14.15;7.93;;;-3.90;93.40;;;;;;5011112;28;20033;-65
2023/01/20 02:01:36;;;;;;;10.60;6.72;;;-4.00;93.10;;;;;;5012441;28;20022;-65
2023/01/20 02:04:07;;;;;;;14.35;7.85;;;-3.90;93.20;;;;;;5011623;28;20034;-64
2023/01/20 02:06:36;;;;;;;11.70;6.95;;;-3.90;93.40;;;;;;5010970;28;20026;-65
2023/01/20 02:09:03;;;;;;;12.43;7.13;;;-3.80;92.90;;;;;;5012061;28;20112;-65
2023/01/20 02:11:31;;;;;;;13.70;7.53;;;-3.80;93.70;;;;;;5004585;28;20050;-65
2023/01/20 02:13:58;;;;;;;13.65;8.70;;;-3.90;93.80;;;;;;4991523;28;20041;-64
2023/01/20 02:16:39;;;;;;;12.10;6.80;;;-3.90;93.40;;;;;;4990679;28;20435;-65
2023/01/20 02:19:48;;;;;;;12.32;7.35;;;-4.00;93.50;;;;;;4991646;28;20042;-63
2023/01/20 02:22:27;;;;;;;14.18;7.55;;;-4.00;92.90;;;;;;4963108;28;20045;-65
2023/01/20 02:25:20;;;;;;;13.85;7.55;;;-4.00;93.00;;;;;;4989714;28;20026;-65
2023/01/20 02:28:04;;;;;;;13.32;7.47;;;-4.10;92.10;;;;;;4985223;28;20094;-65
2023/01/20 02:30:47;;;;;;;12.55;7.38;;;-4.00;91.80;;;;;;4989353;28;20027;-64
2023/01/20 02:33:24;;;;;;;12.88;7.35;;;-4.00;91.80;;;;;;4987455;28;20053;-65
2023/01/20 02:35:54;;;;;;;9.25;5.97;;;-4.00;92.00;;;;;;4987878;28;20030;-65
2023/01/20 02:38:33;;;;;;;12.07;7.10;;;-4.00;91.80;;;;;;4989688;28;20037;-63
2023/01/20 02:41:06;;;;;;;14.75;7.85;;;-4.10;91.80;;;;;;4991686;28;20026;-63
2023/01/20 02:43:37;;;;;;;12.82;6.57;;;-4.10;91.40;;;;;;4988538;28;20323;-64
2023/01/20 02:46:16;;;;;;;14.80;7.53;;;-4.00;91.20;;;;;;4976253;28;20431;-66
2023/01/20 02:49:06;;;;;;;13.02;6.85;;;-4.00;92.00;;;;;;4991539;28;20040;-66
2023/01/20 02:51:41;;;;;;;10.38;6.20;;;-4.00;92.30;;;;;;4976527;28;20080;-64
2023/01/20 02:54:13;;;;;;;11.43;6.47;;;-4.10;92.80;;;;;;4991762;28;20434;-64
2023/01/20 02:56:40;;;;;;;15.10;7.30;;;-4.20;93.00;;;;;;4993918;28;20315;-64
2023/01/20 02:59:17;;;;;;;11.80;7.05;;;-4.40;92.60;;;;;;4974414;28;20372;-64
2023/01/20 03:01:51;;;;;;;12.40;7.15;;;-4.40;91.50;;;;;;4988222;28;20026;-65
2023/01/20 03:04:22;;;;;;;12.70;7.72;;;-4.40;91.90;;;;;;4995589;28;20034;-64
2023/01/20 03:06:51;;;;;;;14.93;7.85;;;-4.60;92.40;;;;;;4988564;28;20117;-63
2023/01/20 03:09:22;;;;;;;13.52;7.28;;;-4.80;92.30;;;;;;4997121;28;20335;-64
2023/01/20 03:11:56;;;;;;;10.25;5.88;;;-4.90;91.10;;;;;;4996559;28;20471;-64
2023/01/20 03:14:22;;;;;;;13.05;7.85;;;-5.00;89.70;;;;;;4999604;28;20407;-64
2023/01/20 03:16:49;;;;;;;13.57;7.82;;;-5.10;89.90;;;;;;4998870;28;20034;-63
2023/01/20 03:19:16;;;;;;;18.13;9.52;;;-5.10;88.70;;;;;;4999089;28;20090;-64
2023/01/20 03:21:42;;;;;;;15.43;7.82;;;-5.10;87.80;;;;;;5008339;28;20024;-63
2023/01/20 03:24:08;;;;;;;15.20;8.98;;;-5.10;87.60;;;;;;5012239;28;20430;-64
2023/01/20 03:26:33;;;;;;;15.95;9.13;;;-5.20;87.80;;;;;;5009107;28;20029;-64
2023/01/20 03:29:04;;;;;;;16.48;9.40;;;-5.20;87.30;;;;;;5004318;28;20029;-64
2023/01/20 03:31:41;;;;;;;17.25;10.45;;;-5.20;87.30;;;;;;5012936;28;20053;-64
2023/01/20 03:34:11;;;;;;;19.85;10.13;;;-5.40;88.10;;;;;;5006057;28;20018;-63
2023/01/20 03:36:38;;;;;;;15.95;10.25;;;-5.50;86.70;;;;;;4999796;28;20026;-64
2023/01/20 03:39:04;;;;;;;19.42;9.27;;;-5.40;85.60;;;;;;5006993;28;20029;-64
2023/01/20 03:42:09;;;;;;;17.27;10.63;;;-5.40;86.40;;;;;;5006162;28;20034;-63
2023/01/20 03:45:02;;;;;;;16.85;10.68;;;-5.50;87.50;;;;;;4995480;28;20326;-64
2023/01/20 03:47:52;;;;;;;16.40;9.87;;;-5.60;86.90;;;;;;5010606;28;20026;-64
2023/01/20 03:50:52;;;;;;;18.20;10.93;;;-5.70;87.70;;;;;;5009985;28;20286;-64
2023/01/20 03:53:36;;;;;;;18.55;11.32;;;-5.70;85.80;;;;;;5005734;28;20141;-65
2023/01/20 03:56:25;;;;;;;20.23;11.30;;;-5.60;86.00;;;;;;5009098;28;20030;-64
2023/01/20 03:58:53;;;;;;;19.95;11.30;;;-5.60;86.20;;;;;;4990942;28;20323;-64
2023/01/20 04:01:23;;;;;;;19.58;10.32;;;-5.70;86.10;;;;;;4998616;28;20031;-64
2023/01/20 04:03:51;;;;;;;17.10;10.60;;;-5.60;85.70;;;;;;5001141;28;20304;-64
2023/01/20 04:06:20;;;;;;;21.90;11.75;;;-5.70;86.40;;;;;;5011133;28;20111;-64
2023/01/20 04:08:55;;;;;;;18.90;11.88;;;-5.80;87.00;;;;;;4992374;28;20085;-64
2023/01/20 04:11:21;;;;;;;21.20;10.90;;;-5.80;86.30;;;;;;4995425;28;20050;-64
2023/01/20 04:13:46;;;;;;;19.50;11.35;;;-5.70;85.30;;;;;;4997374;28;20316;-65
2023/01/20 04:16:17;;;;;;;20.25;12.35;;;-5.70;85.80;;;;;;5008885;28;20029;-64
2023/01/20 04:18:46;;;;;;;21.23;10.93;;;-5.70;85.60;;;;;;4997359;28;20409;-65
2023/01/20 04:21:32;;;;;;;16.50;10.07;;;-5.60;85.60;;;;;;4996969;28;20034;-64
2023/01/20 04:24:06;;;;;;;20.38;11.10;;;-5.60;85.70;;;;;;4961546;28;20058;-64
2023/01/20 04:26:32;;;;;;;21.42;11.40;;;-5.70;85.80;;;;;;4995870;28;20041;-64
2023/01/20 04:29:07;;;;;;;16.73;10.75;;;-5.80;86.00;;;;;;5004214;28;20038;-64
2023/01/20 04:31:35;;;;;;;20.40;11.65;;;-5.80;86.60;;;;;;4997257;28;20384;-64
2023/01/20 04:34:02;;;;;;;21.38;11.30;;;-5.80;86.50;;;;;;4996887;28;20027;-64
2023/01/20 04:36:27;;;;;;;20.17;11.55;;;-5.90;86.20;;;;;;4995168;28;20134;-64
2023/01/20 04:38:53;;;;;;;20.23;11.63;;;-5.80;85.80;;;;;;4981105;28;20413;-64
2023/01/20 04:41:19;;;;;;;19.92;12.05;;;-5.80;85.70;;;;;;4996526;28;20419;-64
2023/01/20 04:43:45;;;;;;;20.35;11.98;;;-5.70;85.50;;;;;;4997022;28;20026;-64
2023/01/20 04:46:12;;;;;;;18.13;11.35;;;-5.70;85.30;;;;;;4997260;28;20057;-64
2023/01/20 04:48:37;;;;;;;19.77;11.50;;;-5.60;85.90;;;;;;5006433;28;20041;-65
2023/01/20 04:51:05;;;;;;;21.52;11.40;;;-5.70;87.20;;;;;;4993647;28;20030;-64
2023/01/20 04:53:30;;;;;;;19.60;12.40;;;-5.80;85.80;;;;;;4997419;28;20030;-64
2023/01/20 04:55:56;;;;;;;19.20;11.40;;;-5.70;85.60;;;;;;4996883;28;20105;-64
2023/01/20 04:58:22;;;;;;;20.38;11.25;;;-5.80;86.30;;;;;;4996954;28;20478;-64
2023/01/20 05:00:47;;;;;;;18.67;11.38;;;-5.80;85.90;;;;;;4996363;28;20030;-64
2023/01/20 05:03:13;;;;;;;20.92;12.10;;;-5.80;86.90;;;;;;4996033;28;20109;-64
2023/01/20 05:05:41;;;;;;;20.73;11.32;;;-5.90;87.70;;;;;;4995126;28;20038;-64
2023/01/20 05:08:06;;;;;;;24.48;13.57;;;-6.10;88.10;;;;;;4997287;28;20030;-64
2023/01/20 05:10:32;;;;;;;22.67;13.93;;;-6.10;87.70;;;;;;4996438;28;20045;-64
2023/01/20 05:12:59;;;;;;;22.63;13.38;;;-6.20;87.20;;;;;;5014117;28;20080;-64
2023/01/20 05:15:24;;;;;;;18.52;11.43;;;-6.10;85.70;;;;;;5012681;28;20037;-64
2023/01/20 05:17:50;;;;;;;20.35;11.57;;;-6.10;86.10;;;;;;5007356;28;20021;-64
2023/01/20 05:20:17;;;;;;;26.17;14.23;;;-6.00;85.30;;;;;;5006292;28;20030;-64
2023/01/20 05:22:43;;;;;;;21.95;13.13;;;-5.80;84.20;;;;;;5006654;28;20046;-64
2023/01/20 05:25:09;;;;;;;21.92;13.55;;;-5.70;85.20;;;;;;5005167;28;20056;-64
2023/01/20 05:27:35;;;;;;;29.25;14.85;;;-5.60;85.40;;;;;;5008692;28;20033;-64
2023/01/20 05:30:02;;;;;;;23.13;13.85;;;-5.50;85.70;;;;;;4999119;28;20022;-64
2023/01/20 05:32:27;;;;;;;19.20;12.18;;;-5.40;85.30;;;;;;5013943;28;20116;-63
2023/01/20 05:34:53;;;;;;;20.30;11.55;;;-5.30;85.50;;;;;;5014207;28;20353;-63
2023/01/20 05:37:19;;;;;;;20.40;13.07;;;-5.30;86.30;;;;;;5013595;28;20293;-63
2023/01/20 05:39:44;;;;;;;23.35;14.85;;;-5.30;87.20;;;;;;5015634;28;20022;-63
2023/01/20 05:42:10;;;;;;;20.88;12.85;;;-5.40;87.70;;;;;;5013902;28;20022;-66
2023/01/20 05:44:35;;;;;;;27.17;13.43;;;-5.30;86.90;;;;;;5015486;28;20033;-65
2023/01/20 05:47:01;;;;;;;21.58;13.48;;;-5.10;85.60;;;;;;5013987;28;20449;-65
2023/01/20 05:49:27;;;;;;;26.25;15.15;;;-4.90;85.50;;;;;;5016047;28;20415;-64
2023/01/20 05:51:52;;;;;;;24.38;14.95;;;-4.80;85.80;;;;;;5014144;28;20018;-65
2023/01/20 05:54:18;;;;;;;26.13;15.30;;;-4.70;86.70;;;;;;5016133;28;20073;-64
2023/01/20 05:56:43;;;;;;;25.00;14.88;;;-4.60;86.90;;;;;;5013433;28;20152;-64
2023/01/20 05:59:09;;;;;;;18.60;11.82;;;-4.60;87.50;;;;;;5012012;28;20065;-64
2023/01/20 06:01:39;;;;;;;24.65;12.88;;;-4.70;89.30;;;;;;5011342;28;20030;-64
2023/01/20 06:04:05;;;;;;;24.42;12.80;;;-4.80;88.80;;;;;;5014902;28;20160;-63
2023/01/20 06:06:30;;;;;;;18.45;12.23;;;-4.70;87.90;;;;;;5014743;28;20084;-64
2023/01/20 06:08:56;;;;;;;20.38;12.82;;;-4.70;88.00;;;;;;5014071;28;20049;-64
2023/01/20 06:11:21;;;;;;;21.80;13.57;;;-4.70;87.80;;;;;;5014671;28;20564;-65
2023/01/20 06:13:47;;;;;;;21.55;14.43;;;-4.60;87.80;;;;;;5014615;28;20061;-64
2023/01/20 06:16:15;;;;;;;22.70;14.43;;;-4.60;87.80;;;;;;5016022;28;20072;-64
2023/01/20 06:18:46;;;;;;;27.27;16.20;;;-4.50;87.40;;;;;;5014518;28;20030;-64
2023/01/20 06:21:12;;;;;;;24.23;14.88;;;-4.40;86.80;;;;;;5008795;28;20022;-64
2023/01/20 06:23:37;;;;;;;22.25;14.43;;;-4.30;86.90;;;;;;5013147;28;20034;-64
2023/01/20 06:26:18;;;;;;;26.00;16.10;;;-4.20;86.20;;;;;;4990959;28;20136;-64
2023/01/20 06:28:43;;;;;;;23.05;15.43;;;-4.00;86.80;;;;;;5011092;28;20125;-64
2023/01/20 06:31:17;;;;;;;24.60;15.93;;;-4.00;87.80;;;;;;5014264;28;20034;-64
2023/01/20 06:33:43;;;;;;;22.20;14.18;;;-4.10;88.00;;;;;;5013308;28;20030;-64
2023/01/20 06:36:12;;;;;;;28.17;16.13;;;-4.10;87.90;;;;;;5013214;28;20049;-64
2023/01/20 06:38:38;;;;;;;34.58;17.52;;;-4.10;87.80;;;;;;5003140;28;20022;-64
2023/01/20 06:41:06;;;;;;;38.08;18.90;;;-4.10;87.60;;;;;;5011667;28;20386;-64
2023/01/20 06:43:33;;;;;;;39.30;22.73;;;-4.10;87.80;;;;;;5016184;28;20076;-64
2023/01/20 06:46:00;;;;;;;48.97;26.58;;;-4.00;87.50;;;;;;5019301;28;20087;-64
2023/01/20 06:48:26;;;;;;;56.92;29.58;;;-3.90;86.80;;;;;;5016192;28;20030;-64
2023/01/20 06:50:51;;;;;;;58.17;29.30;;;-3.80;86.20;;;;;;5016116;28;20092;-64
2023/01/20 06:53:17;;;;;;;49.13;24.85;;;-3.70;85.70;;;;;;5015513;28;20038;-64
2023/01/20 06:55:42;;;;;;;38.08;22.38;;;-3.60;85.60;;;;;;5018561;28;20478;-64
2023/01/20 06:58:08;;;;;;;40.97;22.30;;;-3.60;85.90;;;;;;5015377;28;20121;-64
2023/01/20 07:00:33;;;;;;;39.42;21.83;;;-3.50;85.90;;;;;;5012928;28;20030;-64
2023/01/20 07:02:59;;;;;;;35.05;20.75;;;-3.40;85.90;;;;;;5008315;28;20284;-64
2023/01/20 07:05:24;;;;;;;44.50;22.65;;;-3.40;86.30;;;;;;5016817;28;20315;-64
2023/01/20 07:07:50;;;;;;;41.22;22.67;;;-3.40;86.20;;;;;;5016976;28;20041;-64
2023/01/20 07:10:16;;;;;;;40.03;23.15;;;-3.30;86.20;;;;;;5019070;28;20053;-64
2023/01/20 07:12:41;;;;;;;42.03;25.05;;;-3.30;86.50;;;;;;5016250;28;20026;-64
2023/01/20 07:15:07;;;;;;;48.90;25.65;;;-3.30;86.00;;;;;;5019247;28;20454;-64
2023/01/20 07:17:33;;;;;;;41.90;24.55;;;-3.20;85.60;;;;;;5017761;28;20116;-64
2023/01/20 07:19:58;;;;;;;32.15;20.17;;;-3.20;85.30;;;;;;5019019;28;20135;-64
2023/01/20 07:22:24;;;;;;;28.20;16.90;;;-3.10;85.10;;;;;;5016398;28;20316;-64
2023/01/20 07:24:49;;;;;;;25.33;15.45;;;-3.10;86.10;;;;;;5019016;28;20292;-64
2023/01/20 07:27:15;;;;;;;29.30;18.40;;;-3.20;87.00;;;;;;5013487;28;20053;-64
2023/01/20 07:29:41;;;;;;;35.65;23.25;;;-3.20;87.20;;;;;;5017085;28;20045;-63
2023/01/20 07:32:06;;;;;;;35.72;24.33;;;-3.20;87.10;;;;;;5001320;28;20112;-64
2023/01/20 07:34:32;;;;;;;33.67;23.00;;;-3.10;86.40;;;;;;5017043;28;20398;-64
2023/01/20 07:37:00;;;;;;;33.08;22.52;;;-3.00;85.70;;;;;;5022740;28;20315;-64
2023/01/20 07:39:25;;;;;;;34.33;23.00;;;-2.90;85.60;;;;;;5018537;28;20036;-64
2023/01/20 07:41:51;;;;;;;37.28;23.48;;;-2.90;84.80;;;;;;5035874;28;20092;-63
2023/01/20 07:44:16;;;;;;;35.92;23.38;;;-2.80;85.30;;;;;;5019358;28;20050;-64
2023/01/20 07:46:42;;;;;;;37.28;25.02;;;-2.80;84.90;;;;;;5018494;28;20037;-64
2023/01/20 07:49:09;;;;;;;32.08;21.27;;;-2.70;84.60;;;;;;5015480;28;20029;-63
2023/01/20 07:51:34;;;;;;;36.60;24.00;;;-2.60;84.40;;;;;;5016946;28;20411;-63
2023/01/20 07:54:01;;;;;;;83.72;52.05;;;-2.60;85.10;;;;;;5016944;28;20026;-65
2023/01/20 07:56:30;;;;;;;86.78;55.70;;;-2.60;84.90;;;;;;5016608;28;20061;-64
2023/01/20 07:58:55;;;;;;;48.03;30.35;;;-2.60;85.30;;;;;;5018314;28;20029;-65
2023/01/20 08:01:31;;;;;;;29.45;18.92;;;-2.60;85.10;;;;;;5014681;28;20327;-63
2023/01/20 08:04:01;;;;;;;27.27;16.50;;;-2.50;84.90;;;;;;5018258;28;20034;-65
2023/01/20 08:06:27;;;;;;;27.50;17.10;;;-2.40;83.90;;;;;;5015925;28;20022;-64
2023/01/20 08:08:53;;;;;;;27.42;19.88;;;-2.30;86.10;;;;;;5015697;28;20032;-64
2023/01/20 08:11:20;;;;;;;96.32;47.13;;;-2.10;86.90;;;;;;5017865;28;20049;-65
2023/01/20 08:13:46;;;;;;;40.67;25.45;;;-2.10;88.40;;;;;;5017230;28;20034;-65
2023/01/20 08:16:14;;;;;;;33.50;19.67;;;-2.10;88.80;;;;;;5018069;28;20068;-65
2023/01/20 08:18:40;;;;;;;34.78;22.23;;;-2.10;88.00;;;;;;5015481;28;20033;-65
2023/01/20 08:21:07;;;;;;;30.02;20.10;;;-2.00;87.40;;;;;;5016663;28;20425;-64
2023/01/20 08:23:36;;;;;;;34.15;21.30;;;-1.90;87.30;;;;;;5016009;28;20026;-65
2023/01/20 08:26:04;;;;;;;32.72;21.08;;;-1.90;87.90;;;;;;5017709;28;20327;-64
2023/01/20 08:28:31;;;;;;;30.50;20.15;;;-1.90;88.30;;;;;;5016810;28;20323;-64
2023/01/20 08:31:07;;;;;;;27.67;18.52;;;-1.80;87.40;;;;;;5016529;28;20028;-64
2023/01/20 08:33:32;;;;;;;31.85;21.52;;;-1.60;88.10;;;;;;5015345;28;20026;-64
2023/01/20 08:36:09;;;;;;;24.65;16.63;;;-1.60;90.00;;;;;;5016288;28;20501;-66
2023/01/20 08:38:35;;;;;;;24.10;16.55;;;-1.40;89.00;;;;;;5014060;28;20040;-67
2023/01/20 08:41:05;;;;;;;25.70;17.45;;;-1.20;91.80;;;;;;5015031;28;20026;-66
2023/01/20 08:43:30;;;;;;;29.85;17.90;;;-1.20;94.90;;;;;;5015801;28;20042;-66
2023/01/20 08:46:09;;;;;;;31.08;22.25;;;-1.10;95.70;;;;;;5017278;28;20108;-66
2023/01/20 08:48:36;;;;;;;29.38;21.05;;;-1.00;97.50;;;;;;5016319;28;20045;-65
2023/01/20 08:51:06;;;;;;;38.88;25.77;;;-0.90;96.50;;;;;;5014477;28;20030;-65
2023/01/20 08:53:32;;;;;;;42.03;27.90;;;-0.90;98.00;;;;;;4986006;28;20388;-65
2023/01/20 08:56:00;;;;;;;37.15;23.55;;;-0.80;98.00;;;;;;4997733;28;20105;-65
2023/01/20 08:58:26;;;;;;;36.53;24.92;;;-0.70;98.00;;;;;;4997547;28;20025;-65
2023/01/20 09:00:53;;;;;;;35.85;22.17;;;-0.50;98.00;;;;;;4997485;28;20027;-64
2023/01/20 09:03:19;;;;;;;27.67;19.17;;;-0.40;98.00;;;;;;4997473;28;20377;-65
2023/01/20 09:05:45;;;;;;;28.75;19.92;;;-0.30;98.00;;;;;;4995779;28;20089;-65
2023/01/20 09:08:11;;;;;;;28.33;18.98;;;-0.20;98.00;;;;;;5008794;28;20092;-65
2023/01/20 09:10:36;;;;;;;38.95;23.90;;;-0.10;98.00;;;;;;5016794;28;20069;-65
2023/01/20 09:13:02;;;;;;;30.80;20.15;;;0.00;98.00;;;;;;5016906;28;20025;-65
2023/01/20 09:15:28;;;;;;;27.98;19.45;;;0.10;98.00;;;;;;5016899;28;20067;-65
2023/01/20 09:17:53;;;;;;;24.27;15.68;;;0.00;98.00;;;;;;5015972;28;20030;-64
2023/01/20 09:20:19;;;;;;;26.67;17.27;;;0.20;98.00;;;;;;5017033;28;20026;-65
2023/01/20 09:22:44;;;;;;;28.90;18.55;;;0.10;98.00;;;;;;5015391;28;20029;-65
2023/01/20 09:25:10;;;;;;;24.73;16.10;;;0.00;98.00;;;;;;5015798;28;20108;-65
2023/01/20 09:27:36;;;;;;;24.48;17.23;;;-0.10;98.00;;;;;;5016824;28;20324;-65
2023/01/20 09:30:03;;;;;;;24.10;16.35;;;-0.20;98.00;;;;;;5016700;28;20037;-64
2023/01/20 09:32:28;;;;;;;23.40;16.83;;;-0.30;98.00;;;;;;5015645;28;20065;-65
2023/01/20 09:34:55;;;;;;;28.67;17.02;;;-0.40;98.00;;;;;;5016573;28;20072;-65
2023/01/20 09:46:18;;;;;;;35.00;20.73;;;-0.40;98.00;;;;;;5015072;28;20693;-65
2023/01/20 09:54:43;;;;;;;25.10;16.77;;;0.00;98.00;;;;;;5016294;28;20509;-65
2023/01/20 09:57:11;;;;;;;22.98;14.93;;;0.30;98.00;;;;;;5016230;28;20018;-65
2023/01/20 09:59:43;;;;;;;18.77;12.63;;;0.50;98.00;;;;;;5016208;28;20033;-65
2023/01/20 10:02:27;;;;;;;20.55;12.38;;;0.40;98.00;;;;;;5015648;28;20026;-65
2023/01/20 10:05:02;;;;;;;21.92;14.07;;;0.30;97.40;;;;;;5016112;28;20029;-65
2023/01/20 10:07:49;;;;;;;23.35;14.75;;;0.00;98.00;;;;;;5015007;28;20148;-65
2023/01/20 10:10:22;;;;;;;47.08;23.33;;;-0.20;98.00;;;;;;5016033;28;20128;-65
2023/01/20 10:12:55;;;;;;;20.98;13.63;;;-0.30;98.00;;;;;;5015946;28;20033;-65
2023/01/20 10:15:31;;;;;;;29.92;17.40;;;-0.10;98.00;;;;;;5014501;28;20029;-64
2023/01/20 10:18:15;;;;;;;32.50;15.88;;;0.10;98.00;;;;;;5001503;28;20048;-65
2023/01/20 10:21:01;;;;;;;21.40;12.25;;;0.20;98.00;;;;;;5018941;28;20323;-64
2023/01/20 10:23:41;;;;;;;18.90;11.68;;;0.30;98.00;;;;;;5012174;28;20209;-65
2023/01/20 10:27:08;;;;;;;17.00;10.88;;;0.60;98.00;;;;;;5020062;28;20033;-65
2023/01/20 10:29:37;;;;;;;15.90;10.70;;;0.60;97.80;;;;;;4976218;28;20080;-65
2023/01/20 10:32:13;;;;;;;19.58;12.85;;;0.60;97.50;;;;;;5018942;28;20030;-65
2023/01/20 10:34:45;;;;;;;17.13;9.85;;;0.80;97.30;;;;;;5019347;28;20026;-65
2023/01/20 10:37:14;;;;;;;17.50;11.13;;;0.60;96.90;;;;;;5018541;28;20022;-65
2023/01/20 10:39:47;;;;;;;14.57;9.82;;;0.50;97.70;;;;;;5019714;28;20025;-65
2023/01/20 10:42:14;;;;;;;14.50;9.50;;;0.60;97.00;;;;;;5019782;28;20030;-65
2023/01/20 10:44:42;;;;;;;15.40;9.40;;;0.60;96.80;;;;;;5018546;28;20261;-65
2023/01/20 10:47:08;;;;;;;17.30;9.95;;;0.50;97.10;;;;;;5014461;28;20022;-65
2023/01/20 10:49:51;;;;;;;13.32;9.13;;;0.60;97.60;;;;;;5018775;28;20340;-65
2023/01/20 10:52:32;;;;;;;16.35;9.07;;;0.40;97.60;;;;;;5018090;28;20030;-65
2023/01/20 10:55:25;;;;;;;15.57;9.10;;;0.60;97.70;;;;;;5019312;28;20033;-65
2023/01/20 10:57:55;;;;;;;13.07;8.43;;;0.90;97.00;;;;;;5019436;28;20033;-65
2023/01/20 11:00:27;;;;;;;15.38;9.13;;;1.50;95.90;;;;;;5019299;28;20026;-65
2023/01/20 11:02:57;;;;;;;12.70;8.52;;;1.90;94.30;;;;;;5017380;28;20030;-65
2023/01/20 11:05:36;;;;;;;13.63;7.97;;;2.30;92.50;;;;;;5019404;28;20104;-65
2023/01/20 11:08:05;;;;;;;16.13;10.65;;;2.50;92.10;;;;;;5018609;28;20026;-65
2023/01/20 11:10:32;;;;;;;14.23;9.43;;;3.00;91.30;;;;;;5018748;28;20316;-65
2023/01/20 11:13:00;;;;;;;12.43;7.53;;;3.20;89.60;;;;;;5019144;28;20026;-65
2023/01/20 11:15:32;;;;;;;11.70;8.20;;;3.00;89.00;;;;;;5016009;28;20323;-65
2023/01/20 11:18:13;;;;;;;16.65;10.15;;;2.80;89.30;;;;;;5018916;28;20028;-65
2023/01/20 11:20:42;;;;;;;14.65;9.20;;;2.90;89.40;;;;;;5017939;28;20026;-65
2023/01/20 11:23:22;;;;;;;14.05;9.93;;;3.30;88.90;;;;;;5018750;28;20088;-65
2023/01/20 11:26:00;;;;;;;14.23;9.45;;;3.70;86.90;;;;;;5017285;28;20034;-64
2023/01/20 11:28:35;;;;;;;14.25;11.05;;;3.50;86.70;;;;;;5017617;28;20032;-64
2023/01/20 11:31:03;;;;;;;13.18;9.15;;;3.90;86.30;;;;;;5012997;28;20036;-67
2023/01/20 11:33:28;;;;;;;12.73;7.80;;;3.70;85.50;;;;;;5016852;28;20030;-66
2023/01/20 11:35:59;;;;;;;14.05;9.65;;;3.50;86.50;;;;;;5017165;28;20033;-66
2023/01/20 11:38:28;;;;;;;12.18;7.30;;;4.00;87.00;;;;;;5018578;28;20045;-66
2023/01/20 11:40:56;;;;;;;11.18;6.47;;;5.30;85.10;;;;;;4999939;28;20346;-65
2023/01/20 11:43:36;;;;;;;10.68;5.60;;;6.20;81.20;;;;;;5018567;28;20036;-64
2023/01/20 11:46:29;;;;;;;10.07;5.72;;;6.70;79.30;;;;;;4985049;28;20347;-65
2023/01/20 11:49:15;;;;;;;11.90;5.88;;;6.50;78.90;;;;;;5015609;28;20038;-65
2023/01/20 11:51:49;;;;;;;11.43;7.28;;;6.50;78.60;;;;;;5006938;28;20026;-64
2023/01/20 11:54:27;;;;;;;15.27;9.52;;;6.50;78.60;;;;;;5018063;28;20556;-65
2023/01/20 11:57:09;;;;;;;15.85;9.05;;;5.80;78.50;;;;;;5018113;28;20030;-65
2023/01/20 11:59:45;;;;;;;9.02;5.90;;;5.70;80.50;;;;;;5018075;28;20029;-65
2023/01/20 12:02:11;;;;;;;9.00;6.05;;;6.50;79.60;;;;;;5018138;28;20419;-65
2023/01/20 12:05:08;;;;;;;11.93;6.68;;;7.40;77.20;;;;;;5016983;28;20025;-64
2023/01/20 12:07:40;;;;;;;12.80;7.20;;;7.20;76.40;;;;;;5016769;28;20056;-65
2023/01/20 12:10:35;;;;;;;11.30;7.07;;;6.90;76.40;;;;;;5017691;28;20037;-66
2023/01/20 12:13:25;;;;;;;10.82;7.22;;;6.10;78.40;;;;;;5005062;28;20403;-66
2023/01/20 12:15:54;;;;;;;22.45;15.80;;;6.10;79.20;;;;;;5017770;28;20411;-65
2023/01/20 12:18:34;;;;;;;12.30;7.90;;;5.40;80.00;;;;;;5017930;28;20030;-66
2023/01/20 12:21:16;;;;;;;16.23;8.90;;;4.90;81.80;;;;;;5015865;28;20026;-66
2023/01/20 12:23:51;;;;;;;16.88;10.90;;;5.40;82.60;;;;;;5017580;28;20030;-66
2023/01/20 12:26:18;;;;;;;24.30;17.75;;;5.80;80.50;;;;;;5017700;28;20049;-66
2023/01/20 12:28:54;;;;;;;18.13;12.55;;;5.30;80.90;;;;;;5017679;28;20084;-66
2023/01/20 12:31:24;;;;;;;12.35;7.30;;;4.30;83.10;;;;;;5017524;28;20026;-65
2023/01/20 12:34:03;;;;;;;16.58;10.55;;;3.50;84.80;;;;;;5017487;28;20026;-65
2023/01/20 12:37:07;;;;;;;16.48;11.32;;;2.80;88.20;;;;;;5016436;28;20373;-65
2023/01/20 12:40:06;;;;;;;17.30;9.65;;;2.40;90.40;;;;;;5015822;28;20030;-64
2023/01/20 12:42:37;;;;;;;18.73;10.07;;;2.10;91.60;;;;;;4974730;28;20157;-65
2023/01/20 12:45:12;;;;;;;12.80;8.93;;;1.70;92.40;;;;;;5016363;28;20025;-64
2023/01/20 12:47:57;;;;;;;21.85;14.35;;;1.30;94.00;;;;;;5015889;28;20036;-65
2023/01/20 12:50:43;;;;;;;21.88;12.68;;;1.20;95.10;;;;;;5016179;28;20049;-65
2023/01/20 12:53:29;;;;;;;18.38;12.45;;;1.10;95.60;;;;;;5003530;28;20446;-65
2023/01/20 12:56:19;;;;;;;22.48;14.05;;;1.10;96.10;;;;;;5016142;28;20311;-65
2023/01/20 12:58:58;;;;;;;17.83;10.07;;;0.90;95.90;;;;;;5016727;28;20105;-64
2023/01/20 13:01:29;;;;;;;16.23;9.43;;;0.70;96.50;;;;;;5016386;28;20030;-64
2023/01/20 13:04:22;;;;;;;13.45;8.10;;;0.70;96.70;;;;;;5015525;28;20057;-64
2023/01/20 13:07:11;;;;;;;16.50;8.07;;;0.80;96.60;;;;;;5015817;28;20108;-65